Time;durP1;ratioP1;P1;durP2;ratioP2;P2;SDS_P1;SDS_P2;PMS_P1;PMS_P2;Temp;Humidity;BMP_temperature;BMP_pressure;BME280_temperature;BME280_humidity;BME280_pressure;Samples;Min_cycle;Max_cycle;Signal;HPM_P1;HPM_P2
2022/01/31 00:00:51;;;;;;;27.63;10.37;;;3.70;99.90;;;;;;5116414;28;20636;-64
2022/01/31 00:03:16;;;;;;;22.03;9.17;;;3.70;99.90;;;;;;5116331;28;20171;-64
2022/01/31 00:05:42;;;;;;;20.70;9.10;;;3.70;99.90;;;;;;5117009;28;20239;-63
2022/01/31 00:08:08;;;;;;;21.23;9.33;;;3.80;99.90;;;;;;5116426;28;20204;-64
2022/01/31 00:10:34;;;;;;;17.33;8.80;;;3.80;99.90;;;;;;5116237;28;20209;-64
2022/01/31 00:13:04;;;;;;;19.03;8.90;;;3.70;99.90;;;;;;5114977;28;20172;-64
2022/01/31 00:15:31;;;;;;;12.93;8.57;;;3.70;99.90;;;;;;5115083;28;20643;-63
2022/01/31 00:17:56;;;;;;;13.63;8.17;;;3.80;99.90;;;;;;5115978;28;20185;-63
2022/01/31 00:20:22;;;;;;;14.17;8.13;;;3.70;99.90;;;;;;5116531;27;20202;-64
2022/01/31 00:22:48;;;;;;;18.17;8.33;;;3.70;99.90;;;;;;5114728;28;20263;-63
2022/01/31 00:25:14;;;;;;;15.47;8.13;;;3.70;99.90;;;;;;5116167;28;20169;-64
2022/01/31 00:27:39;;;;;;;17.63;8.83;;;3.70;99.90;;;;;;5115848;28;20564;-64
2022/01/31 00:30:06;;;;;;;13.00;8.07;;;3.70;99.90;;;;;;5115766;28;20230;-64
2022/01/31 00:32:32;;;;;;;17.37;9.07;;;3.70;99.90;;;;;;5116045;28;20240;-63
2022/01/31 00:34:58;;;;;;;18.87;8.43;;;3.70;99.90;;;;;;5115874;28;20251;-64
2022/01/31 00:37:24;;;;;;;13.77;8.60;;;3.80;99.90;;;;;;5115688;28;20203;-64
2022/01/31 00:39:50;;;;;;;21.20;8.17;;;3.80;99.90;;;;;;5115694;28;20256;-63
2022/01/31 00:42:16;;;;;;;18.83;7.73;;;3.80;99.90;;;;;;5114662;28;20221;-63
2022/01/31 00:44:53;;;;;;;16.87;7.23;;;3.70;99.90;;;;;;5115635;28;20256;-64
2022/01/31 00:47:25;;;;;;;17.37;7.97;;;3.80;99.90;;;;;;5114533;28;20676;-64
2022/01/31 00:49:55;;;;;;;22.27;8.30;;;3.80;99.90;;;;;;5115720;28;20529;-64
2022/01/31 00:52:21;;;;;;;18.67;8.20;;;3.80;99.90;;;;;;5115354;28;20169;-63
2022/01/31 00:54:47;;;;;;;17.20;7.70;;;3.80;99.90;;;;;;5115495;28;20277;-63
2022/01/31 00:57:13;;;;;;;14.47;7.80;;;3.80;99.90;;;;;;5116052;28;20494;-64
2022/01/31 00:59:39;;;;;;;12.07;6.90;;;3.70;99.90;;;;;;5115353;28;20183;-63
2022/01/31 01:02:05;;;;;;;15.03;6.57;;;3.80;99.90;;;;;;5115576;28;20161;-63
2022/01/31 01:04:31;;;;;;;12.40;7.20;;;3.80;99.90;;;;;;5115452;28;20692;-63
2022/01/31 01:06:57;;;;;;;16.40;8.20;;;3.80;99.90;;;;;;5115634;28;20176;-63
2022/01/31 01:09:22;;;;;;;12.23;7.43;;;3.80;99.90;;;;;;5115157;28;20192;-63
2022/01/31 01:11:48;;;;;;;12.70;7.80;;;3.80;99.90;;;;;;5113772;28;20183;-63
2022/01/31 01:14:14;;;;;;;14.57;7.03;;;3.80;99.90;;;;;;5113734;28;20183;-63
2022/01/31 01:16:40;;;;;;;12.67;6.90;;;3.80;99.90;;;;;;5114992;28;20586;-63
2022/01/31 01:19:06;;;;;;;16.93;7.73;;;3.90;99.90;;;;;;5114870;28;20619;-63
2022/01/31 01:21:31;;;;;;;14.43;7.83;;;3.90;99.90;;;;;;5115171;28;20241;-63
2022/01/31 01:23:57;;;;;;;14.93;7.60;;;3.90;99.90;;;;;;5115348;28;20204;-63
2022/01/31 01:26:23;;;;;;;9.93;7.37;;;3.90;99.90;;;;;;5113447;28;20204;-63
2022/01/31 01:28:49;;;;;;;12.97;7.50;;;3.90;99.90;;;;;;5113176;28;20216;-64
2022/01/31 01:31:15;;;;;;;15.63;6.67;;;3.90;99.90;;;;;;5115265;28;20172;-63
2022/01/31 01:33:41;;;;;;;13.93;7.63;;;3.90;99.90;;;;;;5114716;28;20196;-64
2022/01/31 01:36:07;;;;;;;13.27;7.47;;;3.90;99.90;;;;;;5115097;28;20213;-63
2022/01/31 01:38:34;;;;;;;20.53;8.07;;;3.90;99.90;;;;;;5114851;28;20275;-63
2022/01/31 01:41:01;;;;;;;8.50;6.70;;;3.90;99.90;;;;;;5114925;28;20179;-63
2022/01/31 01:43:29;;;;;;;13.53;7.73;;;3.90;99.90;;;;;;5114768;28;20173;-63
2022/01/31 01:45:57;;;;;;;17.03;7.80;;;3.90;99.90;;;;;;5114393;28;20610;-63
2022/01/31 01:48:25;;;;;;;13.83;7.97;;;3.90;99.90;;;;;;5114539;27;20222;-63
2022/01/31 01:50:52;;;;;;;13.73;7.63;;;3.90;99.90;;;;;;5113117;28;20241;-63
2022/01/31 01:53:18;;;;;;;19.00;8.23;;;4.00;99.90;;;;;;5114224;28;20664;-63
2022/01/31 01:55:47;;;;;;;13.40;7.43;;;4.00;99.90;;;;;;5113091;28;20200;-63
2022/01/31 01:58:17;;;;;;;12.10;7.23;;;4.00;99.90;;;;;;5114338;28;20192;-63
2022/01/31 02:00:50;;;;;;;14.53;7.67;;;4.00;99.90;;;;;;5114224;28;20168;-63
2022/01/31 02:03:21;;;;;;;18.23;7.43;;;4.00;99.90;;;;;;5114280;28;20157;-63
2022/01/31 02:05:47;;;;;;;14.43;7.20;;;4.00;99.90;;;;;;5114230;28;20176;-63
2022/01/31 02:08:14;;;;;;;20.33;7.47;;;4.00;99.90;;;;;;5114030;28;20607;-63
2022/01/31 02:10:41;;;;;;;13.30;6.67;;;4.00;99.90;;;;;;5114318;28;20536;-64
2022/01/31 02:13:09;;;;;;;14.60;7.37;;;4.00;99.90;;;;;;5114422;28;20178;-63
2022/01/31 02:15:35;;;;;;;16.40;6.77;;;4.00;99.90;;;;;;5114208;28;20262;-63
2022/01/31 02:18:02;;;;;;;17.97;7.90;;;4.00;99.90;;;;;;5113971;28;20184;-63
2022/01/31 02:20:28;;;;;;;12.40;7.47;;;4.00;99.90;;;;;;5113962;28;20164;-63
2022/01/31 02:22:54;;;;;;;10.40;7.17;;;4.00;99.90;;;;;;5114036;28;20539;-63
2022/01/31 02:25:20;;;;;;;13.50;7.20;;;4.00;99.90;;;;;;5112683;28;20173;-63
2022/01/31 02:27:46;;;;;;;13.73;7.63;;;4.00;99.90;;;;;;5113714;28;20203;-64
2022/01/31 02:30:15;;;;;;;12.40;7.33;;;4.00;99.90;;;;;;5112602;28;20193;-63
2022/01/31 02:32:43;;;;;;;18.30;6.83;;;4.00;99.90;;;;;;5114197;28;20183;-63
2022/01/31 02:35:11;;;;;;;11.40;7.33;;;4.00;99.90;;;;;;5114231;28;20629;-63
2022/01/31 02:37:37;;;;;;;9.43;6.53;;;4.00;99.90;;;;;;5113747;28;20188;-63
2022/01/31 02:40:04;;;;;;;16.53;7.37;;;4.00;99.90;;;;;;5112800;28;20544;-63
2022/01/31 02:42:30;;;;;;;16.90;7.00;;;4.00;99.90;;;;;;5113832;28;20172;-63
2022/01/31 02:44:55;;;;;;;13.67;8.10;;;4.00;99.90;;;;;;5114242;28;20164;-63
2022/01/31 02:47:25;;;;;;;14.37;7.70;;;3.90;99.90;;;;;;5113847;28;20214;-63
2022/01/31 02:52:20;;;;;;;13.67;7.53;;;3.70;99.90;;;;;;5113928;28;20306;-63
2022/01/31 02:54:47;;;;;;;13.90;7.70;;;3.60;99.90;;;;;;5113727;28;20169;-63
2022/01/31 02:57:13;;;;;;;15.37;7.90;;;3.50;99.90;;;;;;5113812;28;20168;-63
2022/01/31 02:59:39;;;;;;;19.17;8.93;;;3.40;99.90;;;;;;5113583;28;20225;-64
2022/01/31 03:02:05;;;;;;;18.03;8.07;;;3.40;99.90;;;;;;5113592;28;20204;-64
2022/01/31 03:04:31;;;;;;;13.80;7.97;;;3.30;99.90;;;;;;5112316;28;20176;-63
2022/01/31 03:06:57;;;;;;;12.80;8.00;;;3.20;99.90;;;;;;5114034;28;20173;-64
2022/01/31 03:09:23;;;;;;;11.57;7.73;;;3.10;99.90;;;;;;5113545;28;20184;-63
2022/01/31 03:11:48;;;;;;;22.37;8.70;;;3.10;99.90;;;;;;5113467;28;20257;-63
2022/01/31 03:14:16;;;;;;;10.47;7.57;;;3.00;99.90;;;;;;5112111;28;20173;-63
2022/01/31 03:16:44;;;;;;;14.83;8.73;;;3.00;99.90;;;;;;5115366;28;20648;-63
2022/01/31 03:19:09;;;;;;;13.90;8.07;;;2.90;99.90;;;;;;5117304;28;20185;-63
2022/01/31 03:21:36;;;;;;;17.03;7.97;;;2.70;99.90;;;;;;5115956;28;20184;-63
2022/01/31 03:24:03;;;;;;;22.67;8.30;;;2.70;99.90;;;;;;5117108;28;20196;-63
2022/01/31 03:26:29;;;;;;;14.93;8.37;;;2.50;99.90;;;;;;5117073;27;20263;-64
2022/01/31 03:28:55;;;;;;;20.10;9.53;;;2.50;99.90;;;;;;5115542;28;20307;-63
2022/01/31 03:31:21;;;;;;;11.87;8.07;;;2.40;99.90;;;;;;5117168;28;20169;-63
2022/01/31 03:33:48;;;;;;;14.07;8.30;;;2.30;99.90;;;;;;5117029;28;20172;-63
2022/01/31 03:36:14;;;;;;;13.13;8.83;;;2.30;99.90;;;;;;5117484;28;20172;-64
2022/01/31 03:38:41;;;;;;;10.40;8.50;;;2.20;99.90;;;;;;5117041;28;20196;-63
2022/01/31 03:41:11;;;;;;;13.33;8.77;;;2.20;99.90;;;;;;5117512;28;20528;-63
2022/01/31 03:43:38;;;;;;;15.90;8.80;;;2.10;99.90;;;;;;5117313;28;20617;-63
2022/01/31 03:46:04;;;;;;;10.73;8.00;;;2.10;99.90;;;;;;5116766;28;20172;-64
2022/01/31 03:48:30;;;;;;;12.93;8.67;;;2.00;99.90;;;;;;5116708;28;20233;-63
2022/01/31 03:50:57;;;;;;;9.93;7.93;;;1.90;99.90;;;;;;5116682;28;20229;-64
2022/01/31 03:53:23;;;;;;;11.13;8.17;;;1.90;99.90;;;;;;5116939;28;20164;-63
2022/01/31 03:55:50;;;;;;;11.40;7.93;;;1.90;99.90;;;;;;5116619;28;20175;-63
2022/01/31 03:58:16;;;;;;;16.23;8.40;;;1.90;99.90;;;;;;5116638;28;20252;-63
2022/01/31 04:00:42;;;;;;;16.00;8.90;;;1.90;99.90;;;;;;5116480;28;20173;-63
2022/01/31 04:03:09;;;;;;;10.13;8.33;;;1.90;99.90;;;;;;5115182;28;20541;-63
2022/01/31 04:05:37;;;;;;;9.17;8.30;;;1.90;99.90;;;;;;5116839;28;20169;-63
2022/01/31 04:08:07;;;;;;;11.50;8.30;;;1.90;99.90;;;;;;5114944;28;20278;-63
2022/01/31 04:10:35;;;;;;;9.00;8.07;;;1.90;99.90;;;;;;5117026;27;20563;-63
2022/01/31 04:13:01;;;;;;;15.07;8.63;;;1.90;99.90;;;;;;5116224;28;20164;-63
2022/01/31 04:15:27;;;;;;;9.30;8.40;;;1.90;99.90;;;;;;5114941;28;20226;-63
2022/01/31 04:17:53;;;;;;;9.47;8.67;;;1.90;99.90;;;;;;5114765;28;20213;-63
2022/01/31 04:20:19;;;;;;;10.43;8.40;;;1.90;99.90;;;;;;5115230;28;20176;-64
2022/01/31 04:22:58;;;;;;;8.80;8.00;;;1.90;99.90;;;;;;5116150;28;20176;-64
2022/01/31 04:25:45;;;;;;;9.53;8.17;;;1.90;99.90;;;;;;5116565;28;20153;-64
2022/01/31 04:33:41;;;;;;;8.87;7.97;;;2.10;99.90;;;;;;5115930;28;20572;-63
2022/01/31 04:36:07;;;;;;;9.17;8.00;;;2.10;99.90;;;;;;5114488;28;20552;-64
2022/01/31 04:38:33;;;;;;;9.17;7.87;;;2.10;99.90;;;;;;5116083;28;20218;-63
2022/01/31 04:41:00;;;;;;;10.50;8.43;;;2.20;99.90;;;;;;5115687;28;20180;-63
2022/01/31 04:43:25;;;;;;;8.87;8.07;;;2.20;99.90;;;;;;5114432;28;20191;-64
2022/01/31 04:45:53;;;;;;;11.70;8.73;;;2.20;99.90;;;;;;5116380;28;20177;-64
2022/01/31 04:48:20;;;;;;;10.23;8.43;;;2.30;99.90;;;;;;5114161;28;20695;-63
2022/01/31 04:50:47;;;;;;;10.87;8.83;;;2.30;99.90;;;;;;5115649;28;20203;-63
2022/01/31 04:53:14;;;;;;;12.27;9.80;;;2.40;99.90;;;;;;5115499;28;20241;-64
2022/01/31 04:55:41;;;;;;;10.63;9.50;;;2.50;99.90;;;;;;5115593;28;20181;-63
2022/01/31 04:58:07;;;;;;;11.20;10.10;;;2.50;99.90;;;;;;5116934;28;20302;-64
2022/01/31 05:00:33;;;;;;;14.53;10.43;;;2.60;99.90;;;;;;5115502;28;20177;-63
2022/01/31 05:03:00;;;;;;;13.20;10.60;;;2.80;99.90;;;;;;5114692;28;20706;-63
2022/01/31 05:05:26;;;;;;;15.27;10.90;;;2.90;99.90;;;;;;5114076;28;20180;-63
2022/01/31 05:07:54;;;;;;;15.53;10.93;;;2.90;99.90;;;;;;5115418;28;20185;-63
2022/01/31 05:10:20;;;;;;;16.27;10.33;;;3.00;99.90;;;;;;5115398;28;20249;-63
2022/01/31 05:12:46;;;;;;;13.83;11.53;;;3.10;99.90;;;;;;5113926;28;20182;-63
2022/01/31 05:15:12;;;;;;;16.10;12.00;;;3.10;99.90;;;;;;5115242;28;20247;-63
2022/01/31 05:17:38;;;;;;;17.67;11.97;;;3.20;99.90;;;;;;5115117;28;20219;-63
2022/01/31 05:20:05;;;;;;;14.87;11.73;;;3.40;99.90;;;;;;5113752;28;20203;-63
2022/01/31 05:22:31;;;;;;;16.00;12.13;;;3.50;99.90;;;;;;5113746;28;20528;-64
2022/01/31 05:24:56;;;;;;;17.63;12.90;;;3.60;99.90;;;;;;5115010;28;20187;-63
2022/01/31 05:27:22;;;;;;;20.63;12.77;;;3.70;99.90;;;;;;5115194;27;20204;-62
2022/01/31 05:29:48;;;;;;;16.13;12.70;;;3.70;99.90;;;;;;5114911;28;20233;-62
2022/01/31 05:32:14;;;;;;;19.17;13.03;;;3.80;99.90;;;;;;5113535;28;20187;-63
2022/01/31 05:34:40;;;;;;;19.80;13.40;;;3.90;99.90;;;;;;5114763;28;20176;-63
2022/01/31 05:37:06;;;;;;;24.83;15.00;;;4.00;99.90;;;;;;5114857;28;20255;-63
2022/01/31 05:39:31;;;;;;;22.27;14.07;;;4.10;99.90;;;;;;5114430;27;20698;-62
2022/01/31 05:41:57;;;;;;;24.07;14.27;;;4.20;99.90;;;;;;5114447;28;20222;-62
2022/01/31 05:44:24;;;;;;;22.80;15.53;;;4.30;99.90;;;;;;5114415;28;20610;-62
2022/01/31 05:46:51;;;;;;;21.87;14.63;;;4.30;99.90;;;;;;5114592;28;20182;-62
2022/01/31 05:49:17;;;;;;;23.33;14.50;;;4.40;99.90;;;;;;5114135;28;20749;-63
2022/01/31 05:52:04;;;;;;;21.37;13.37;;;4.40;99.90;;;;;;5114264;27;20177;-63
2022/01/31 05:54:36;;;;;;;20.70;13.57;;;4.40;99.90;;;;;;5112877;28;20255;-63
2022/01/31 05:57:02;;;;;;;24.40;14.67;;;4.50;99.90;;;;;;5114127;28;20169;-62
2022/01/31 05:59:28;;;;;;;21.50;14.60;;;4.40;99.90;;;;;;5112801;28;20181;-63
2022/01/31 06:01:56;;;;;;;22.70;15.23;;;4.50;99.90;;;;;;5112895;28;20173;-63
2022/01/31 06:04:22;;;;;;;21.43;14.57;;;4.50;99.90;;;;;;5114388;28;20234;-63
2022/01/31 06:06:48;;;;;;;19.53;14.37;;;4.50;99.90;;;;;;5114098;28;20633;-63
2022/01/31 06:09:13;;;;;;;19.27;12.77;;;4.50;99.90;;;;;;5114160;28;20200;-63
2022/01/31 06:11:39;;;;;;;16.67;12.57;;;4.50;99.90;;;;;;5114337;28;20161;-63
2022/01/31 06:14:08;;;;;;;23.00;12.43;;;4.60;99.90;;;;;;5114468;28;20194;-63
2022/01/31 06:16:35;;;;;;;22.90;12.20;;;4.60;99.90;;;;;;5112701;28;20184;-64
2022/01/31 06:19:01;;;;;;;19.37;12.37;;;4.50;99.90;;;;;;5112789;28;20200;-63
2022/01/31 06:21:27;;;;;;;17.03;11.33;;;4.60;99.90;;;;;;5113960;28;20201;-64
2022/01/31 06:23:53;;;;;;;19.63;11.77;;;4.60;99.90;;;;;;5114417;28;20161;-64
2022/01/31 06:26:22;;;;;;;12.83;11.13;;;4.60;99.90;;;;;;5115544;28;20570;-66
2022/01/31 06:28:49;;;;;;;18.20;11.53;;;4.60;99.90;;;;;;5112418;28;20218;-66
2022/01/31 06:31:15;;;;;;;15.37;11.17;;;4.60;99.90;;;;;;5114349;28;20266;-65
2022/01/31 06:33:42;;;;;;;13.70;10.80;;;4.60;99.90;;;;;;5112655;28;20649;-66
2022/01/31 06:36:08;;;;;;;16.60;9.77;;;4.60;99.90;;;;;;5114123;28;20513;-65
2022/01/31 06:38:35;;;;;;;14.17;9.90;;;4.60;99.90;;;;;;5112526;28;20691;-65
2022/01/31 06:41:02;;;;;;;15.20;9.80;;;4.60;99.90;;;;;;5113842;28;20176;-65
2022/01/31 06:43:28;;;;;;;15.40;10.97;;;4.60;99.90;;;;;;5112523;28;20251;-65
2022/01/31 06:45:54;;;;;;;21.47;10.93;;;4.60;99.90;;;;;;5113814;28;20601;-65
2022/01/31 06:48:20;;;;;;;17.03;11.07;;;4.60;99.90;;;;;;5112266;28;20735;-65
2022/01/31 06:50:45;;;;;;;13.47;10.73;;;4.60;99.90;;;;;;5116076;28;20174;-65
2022/01/31 06:53:12;;;;;;;12.70;10.33;;;4.60;99.90;;;;;;5117315;28;20188;-66
2022/01/31 06:55:39;;;;;;;17.67;11.57;;;4.60;99.90;;;;;;5118934;28;20172;-65
2022/01/31 06:58:04;;;;;;;20.20;12.00;;;4.60;99.90;;;;;;5119748;28;20702;-64
2022/01/31 07:00:31;;;;;;;21.53;13.10;;;4.60;99.90;;;;;;5119535;28;20176;-65
2022/01/31 07:02:56;;;;;;;17.77;12.30;;;4.60;99.90;;;;;;5120091;28;20176;-65
2022/01/31 07:05:22;;;;;;;18.30;11.80;;;4.60;99.90;;;;;;5119670;27;20172;-65
2022/01/31 07:07:49;;;;;;;21.27;11.83;;;4.60;99.90;;;;;;5118913;28;20192;-65
2022/01/31 07:10:15;;;;;;;16.20;10.93;;;4.60;99.90;;;;;;5118892;28;20676;-65
2022/01/31 07:12:47;;;;;;;18.53;11.43;;;4.70;99.90;;;;;;5117646;28;20582;-65
2022/01/31 07:15:13;;;;;;;18.87;11.30;;;4.60;99.90;;;;;;5118252;28;20157;-65
2022/01/31 07:17:44;;;;;;;16.37;10.43;;;4.60;99.90;;;;;;5117626;28;20204;-65
2022/01/31 07:20:13;;;;;;;15.93;11.23;;;4.60;99.90;;;;;;5117835;28;20512;-65
2022/01/31 07:22:40;;;;;;;14.23;10.70;;;4.60;99.90;;;;;;5117453;28;20172;-65
2022/01/31 07:25:21;;;;;;;14.23;10.90;;;4.60;99.90;;;;;;5117451;28;20173;-65
2022/01/31 07:27:47;;;;;;;17.70;11.10;;;4.60;99.90;;;;;;5116976;28;20192;-65
2022/01/31 07:30:13;;;;;;;15.17;10.07;;;4.50;99.90;;;;;;5117256;28;20215;-64
2022/01/31 07:32:41;;;;;;;19.80;9.20;;;4.40;99.90;;;;;;5117057;28;20183;-65
2022/01/31 07:35:09;;;;;;;10.60;8.00;;;4.30;99.90;;;;;;5117048;27;20172;-65
2022/01/31 07:37:35;;;;;;;10.53;7.67;;;4.10;99.90;;;;;;5115623;28;20274;-65
2022/01/31 07:40:05;;;;;;;12.27;8.17;;;4.00;99.90;;;;;;5117389;28;20196;-65
2022/01/31 07:42:31;;;;;;;12.70;8.57;;;3.80;99.90;;;;;;5115644;28;20191;-65
2022/01/31 07:44:57;;;;;;;12.07;8.60;;;3.80;99.90;;;;;;5116788;28;20177;-65
2022/01/31 07:47:22;;;;;;;10.43;8.17;;;3.70;99.90;;;;;;5116984;28;20285;-65
2022/01/31 07:49:50;;;;;;;10.33;7.97;;;3.70;99.90;;;;;;5116596;28;20212;-65
2022/01/31 07:52:16;;;;;;;9.70;8.27;;;3.80;99.90;;;;;;5117211;28;20304;-65
2022/01/31 07:54:43;;;;;;;10.77;8.53;;;3.80;99.90;;;;;;5116724;28;20251;-65
2022/01/31 07:57:09;;;;;;;9.77;8.23;;;3.70;99.90;;;;;;5117060;28;20160;-65
2022/01/31 07:59:35;;;;;;;13.63;8.70;;;3.70;99.90;;;;;;5116942;28;20267;-65
2022/01/31 08:02:01;;;;;;;8.63;7.30;;;3.60;99.90;;;;;;5116502;28;20200;-66
2022/01/31 08:04:27;;;;;;;7.73;7.00;;;3.60;99.90;;;;;;5117510;28;20176;-65
2022/01/31 08:06:53;;;;;;;11.50;7.73;;;3.60;99.90;;;;;;5115099;28;20204;-65
2022/01/31 08:09:19;;;;;;;10.80;8.23;;;3.50;99.90;;;;;;5114968;28;20743;-65
2022/01/31 08:11:44;;;;;;;8.27;7.40;;;3.60;99.90;;;;;;5116650;28;20248;-65
2022/01/31 08:14:12;;;;;;;9.47;8.53;;;3.60;99.90;;;;;;5116175;28;20200;-65
2022/01/31 08:16:39;;;;;;;11.73;9.00;;;3.50;99.90;;;;;;5114857;28;20167;-65
2022/01/31 08:19:08;;;;;;;9.07;8.10;;;3.50;99.90;;;;;;5116040;28;20680;-65
2022/01/31 08:21:37;;;;;;;10.63;8.67;;;3.50;99.90;;;;;;5114882;28;20641;-65
2022/01/31 08:24:04;;;;;;;10.17;8.30;;;3.60;99.90;;;;;;5116650;28;20184;-65
2022/01/31 08:26:30;;;;;;;11.27;8.60;;;3.60;99.90;;;;;;5115927;28;20215;-65
2022/01/31 08:29:04;;;;;;;12.30;8.63;;;3.50;99.90;;;;;;5115612;28;20220;-65
2022/01/31 08:31:35;;;;;;;8.80;8.10;;;3.50;99.90;;;;;;5115752;28;20202;-65
2022/01/31 08:34:07;;;;;;;8.57;7.80;;;3.50;99.90;;;;;;5115847;28;20614;-65
2022/01/31 08:36:34;;;;;;;9.77;8.57;;;3.50;99.90;;;;;;5116376;28;20168;-65
2022/01/31 08:39:09;;;;;;;9.33;8.33;;;3.50;99.90;;;;;;5115969;28;20205;-65
2022/01/31 08:41:37;;;;;;;8.63;7.83;;;3.40;99.90;;;;;;5115711;28;20172;-65
2022/01/31 08:44:04;;;;;;;8.83;7.93;;;3.40;99.90;;;;;;5114353;28;20702;-65
2022/01/31 08:46:30;;;;;;;9.27;8.10;;;3.40;99.90;;;;;;5114234;28;20184;-65
2022/01/31 08:48:58;;;;;;;9.40;8.43;;;3.40;99.90;;;;;;5115308;28;20732;-65
2022/01/31 08:51:24;;;;;;;12.73;9.87;;;3.40;99.90;;;;;;5115545;28;20230;-65
2022/01/31 08:53:49;;;;;;;16.57;10.50;;;3.40;99.90;;;;;;5115703;28;20176;-65
2022/01/31 08:56:15;;;;;;;10.60;9.50;;;3.40;99.90;;;;;;5115406;28;20180;-65
2022/01/31 08:58:48;;;;;;;14.57;10.07;;;3.40;99.90;;;;;;5115449;27;20223;-65
2022/01/31 09:01:20;;;;;;;16.23;10.40;;;3.40;99.90;;;;;;5113986;28;20698;-65
2022/01/31 09:06:21;;;;;;;10.87;9.63;;;3.50;99.90;;;;;;5115485;28;20631;-65
2022/01/31 09:08:47;;;;;;;11.40;10.10;;;3.50;99.90;;;;;;5114928;28;20212;-65
2022/01/31 09:11:14;;;;;;;10.40;9.33;;;3.50;99.90;;;;;;5115070;28;20176;-65
2022/01/31 09:13:40;;;;;;;16.43;11.00;;;3.50;99.90;;;;;;5114179;28;20252;-65
2022/01/31 09:16:07;;;;;;;14.07;10.33;;;3.50;99.90;;;;;;5113685;28;20215;-65
2022/01/31 09:18:33;;;;;;;17.73;11.77;;;3.50;99.90;;;;;;5114791;28;20258;-65
2022/01/31 09:21:00;;;;;;;18.47;12.23;;;3.60;99.90;;;;;;5114854;28;20199;-65
2022/01/31 09:23:27;;;;;;;12.17;10.87;;;3.60;99.90;;;;;;5114878;28;20660;-65
2022/01/31 09:25:54;;;;;;;15.67;11.60;;;3.60;99.90;;;;;;5115104;28;20210;-65
2022/01/31 09:28:20;;;;;;;14.07;11.10;;;3.60;99.90;;;;;;5114726;28;20204;-65
2022/01/31 09:30:46;;;;;;;15.67;10.47;;;3.60;99.90;;;;;;5115056;28;20527;-65
2022/01/31 09:33:13;;;;;;;11.43;10.23;;;3.60;99.90;;;;;;5113375;28;20267;-65
2022/01/31 09:35:40;;;;;;;10.77;9.57;;;3.60;99.90;;;;;;5114561;28;20177;-65
2022/01/31 09:38:08;;;;;;;13.10;9.87;;;3.60;99.90;;;;;;5114523;28;20192;-65
2022/01/31 09:40:35;;;;;;;11.53;9.87;;;3.60;99.90;;;;;;5114476;28;20176;-65
2022/01/31 09:43:23;;;;;;;13.93;9.50;;;3.60;99.90;;;;;;5114972;28;20168;-65
2022/01/31 09:48:33;;;;;;;9.63;8.63;;;3.60;99.90;;;;;;5114819;28;20676;-63
2022/01/31 09:51:19;;;;;;;12.93;9.20;;;3.70;99.90;;;;;;5114432;28;20159;-63
2022/01/31 09:53:46;;;;;;;9.87;8.27;;;3.70;99.90;;;;;;5114835;28;20205;-63
2022/01/31 09:56:21;;;;;;;9.43;8.20;;;3.70;99.90;;;;;;5114730;28;20168;-62
2022/01/31 09:58:48;;;;;;;11.37;8.50;;;3.70;99.90;;;;;;5114975;28;20172;-64
2022/01/31 10:01:16;;;;;;;9.47;8.47;;;3.80;99.90;;;;;;5114474;28;20221;-63
2022/01/31 10:03:58;;;;;;;14.53;8.90;;;3.80;99.90;;;;;;5113985;28;20173;-63
2022/01/31 10:06:26;;;;;;;14.13;8.80;;;3.80;99.90;;;;;;5114716;28;20528;-64
2022/01/31 10:09:17;;;;;;;13.00;9.30;;;3.80;99.90;;;;;;5116100;28;20192;-63
2022/01/31 10:16:24;;;;;;;12.43;8.83;;;3.90;99.90;;;;;;5113352;28;20283;-63
2022/01/31 10:17:40;;;;;;;13.57;8.83;;;3.90;99.90;;;;;;5113937;28;20211;-66
2022/01/31 10:20:18;;;;;;;13.80;8.70;;;3.90;99.90;;;;;;5114743;28;20522;-65
2022/01/31 10:22:44;;;;;;;13.17;9.57;;;3.90;99.90;;;;;;5112569;28;20228;-66
2022/01/31 10:25:16;;;;;;;19.13;9.87;;;3.90;99.90;;;;;;5113617;28;20691;-65
2022/01/31 10:27:51;;;;;;;16.73;9.23;;;3.90;99.90;;;;;;5113920;28;20739;-67
2022/01/31 10:30:21;;;;;;;14.60;9.07;;;4.00;99.90;;;;;;5113748;28;20184;-66
2022/01/31 10:32:49;;;;;;;11.00;8.07;;;4.00;99.90;;;;;;5113803;28;20193;-66
2022/01/31 10:35:20;;;;;;;11.33;8.03;;;4.00;99.90;;;;;;5113817;28;20241;-65
2022/01/31 10:37:48;;;;;;;11.80;7.43;;;4.10;99.90;;;;;;5114110;28;20188;-66
2022/01/31 10:46:05;;;;;;;17.40;9.10;;;4.00;99.90;;;;;;5114243;28;20196;-65
2022/01/31 10:56:59;;;;;;;13.40;9.10;;;4.00;99.90;;;;;;5113895;28;20161;-65
2022/01/31 10:59:27;;;;;;;8.67;6.80;;;4.00;99.90;;;;;;5113743;28;20167;-65
2022/01/31 11:01:56;;;;;;;13.40;7.03;;;4.00;99.90;;;;;;5113677;28;20153;-65
2022/01/31 11:04:22;;;;;;;10.53;6.80;;;4.10;99.90;;;;;;5112278;28;20656;-66
2022/01/31 11:06:56;;;;;;;14.00;6.53;;;4.10;99.90;;;;;;5114083;28;20515;-65
2022/01/31 11:09:21;;;;;;;7.97;6.23;;;4.10;99.90;;;;;;5113851;28;20192;-65
2022/01/31 11:11:49;;;;;;;19.60;7.20;;;4.10;99.90;;;;;;5112700;28;20222;-65
2022/01/31 11:14:17;;;;;;;7.73;6.53;;;4.10;99.90;;;;;;5113388;28;20636;-65
2022/01/31 11:16:45;;;;;;;9.50;6.70;;;4.10;99.90;;;;;;5113553;28;20241;-65
2022/01/31 11:19:15;;;;;;;9.30;6.10;;;4.10;99.90;;;;;;5113240;28;20271;-65
2022/01/31 11:21:44;;;;;;;8.17;5.57;;;4.20;99.90;;;;;;5113580;28;20655;-65
2022/01/31 11:24:35;;;;;;;11.97;6.23;;;4.20;99.90;;;;;;5113313;28;20179;-65
2022/01/31 11:27:12;;;;;;;6.67;5.97;;;4.20;99.90;;;;;;5113375;28;20173;-65
2022/01/31 11:29:45;;;;;;;6.40;5.80;;;4.10;99.90;;;;;;5113418;28;20698;-65
2022/01/31 11:32:11;;;;;;;9.10;5.90;;;4.20;99.90;;;;;;5112480;28;20693;-66
2022/01/31 11:34:43;;;;;;;9.97;6.17;;;4.20;99.90;;;;;;5113573;28;20244;-65
2022/01/31 11:37:12;;;;;;;9.93;6.10;;;4.20;99.90;;;;;;5115883;28;20703;-65
2022/01/31 11:39:41;;;;;;;8.83;5.67;;;4.20;99.90;;;;;;5117128;28;20179;-64
2022/01/31 11:42:08;;;;;;;6.37;5.43;;;4.30;99.90;;;;;;5117325;28;20527;-65
2022/01/31 11:44:52;;;;;;;5.90;5.30;;;4.30;99.90;;;;;;5117449;28;20256;-65
2022/01/31 11:47:27;;;;;;;9.33;5.10;;;4.30;99.90;;;;;;5116788;28;20571;-66
2022/01/31 11:49:56;;;;;;;5.80;4.73;;;4.40;99.90;;;;;;5116682;28;20598;-66
2022/01/31 11:52:24;;;;;;;6.93;4.80;;;4.40;99.90;;;;;;5115509;28;20172;-65
2022/01/31 11:54:51;;;;;;;6.80;5.10;;;4.50;99.90;;;;;;5116585;28;20719;-66
2022/01/31 11:57:24;;;;;;;6.63;4.80;;;4.60;99.90;;;;;;5116465;28;20167;-66
2022/01/31 11:59:55;;;;;;;8.57;4.43;;;4.70;99.90;;;;;;5117058;28;20239;-64
2022/01/31 12:02:23;;;;;;;5.77;4.67;;;4.70;99.90;;;;;;5117027;28;20161;-66
2022/01/31 12:04:50;;;;;;;5.60;4.80;;;4.70;99.90;;;;;;5115108;28;20215;-66
2022/01/31 12:07:42;;;;;;;5.27;4.77;;;4.70;99.90;;;;;;5116232;28;20181;-66
2022/01/31 12:10:22;;;;;;;6.10;4.80;;;4.60;99.90;;;;;;5116510;28;20591;-65
2022/01/31 12:12:56;;;;;;;5.50;4.90;;;4.60;99.90;;;;;;5114923;28;20264;-66
2022/01/31 12:24:05;;;;;;;4.90;4.60;;;4.60;99.90;;;;;;5116689;28;20163;-65
2022/01/31 12:26:39;;;;;;;5.03;4.47;;;4.60;99.90;;;;;;5116490;28;20176;-66
2022/01/31 12:29:17;;;;;;;4.97;4.57;;;4.60;99.90;;;;;;5114534;28;20208;-66
2022/01/31 12:31:57;;;;;;;5.00;4.50;;;4.60;99.90;;;;;;5115878;28;20190;-66
2022/01/31 12:34:24;;;;;;;7.63;5.23;;;4.60;99.90;;;;;;5116280;28;20157;-64
2022/01/31 12:36:50;;;;;;;7.20;4.90;;;4.60;99.90;;;;;;5115870;28;20165;-64
2022/01/31 12:39:29;;;;;;;5.43;4.93;;;4.70;99.90;;;;;;5114292;28;20256;-64
2022/01/31 12:42:04;;;;;;;4.97;4.60;;;4.60;99.90;;;;;;5114579;28;20544;-63
2022/01/31 12:44:33;;;;;;;4.90;4.60;;;4.60;99.90;;;;;;5115696;28;20243;-64
2022/01/31 12:47:17;;;;;;;4.80;4.47;;;4.60;99.90;;;;;;5114377;28;20219;-64
2022/01/31 12:49:44;;;;;;;7.43;4.70;;;4.60;99.90;;;;;;5115757;28;20195;-65
2022/01/31 12:52:11;;;;;;;6.83;5.50;;;4.60;99.90;;;;;;5114532;28;20578;-64
2022/01/31 12:54:39;;;;;;;10.10;5.30;;;4.60;99.90;;;;;;5114124;28;20168;-64
2022/01/31 12:57:12;;;;;;;8.10;5.80;;;4.60;99.90;;;;;;5115230;28;20622;-64
2022/01/31 12:59:40;;;;;;;5.40;4.93;;;4.60;99.90;;;;;;5113980;28;20187;-63
2022/01/31 13:02:09;;;;;;;5.10;4.63;;;4.60;99.90;;;;;;5115601;28;20210;-64
2022/01/31 13:04:35;;;;;;;5.10;4.60;;;4.60;99.90;;;;;;5115843;28;20533;-64
2022/01/31 13:07:10;;;;;;;4.73;4.33;;;4.60;99.90;;;;;;5115146;28;20175;-64
2022/01/31 13:09:38;;;;;;;6.23;4.50;;;4.60;99.90;;;;;;5115376;28;20706;-64
2022/01/31 13:12:06;;;;;;;5.07;4.57;;;4.60;99.90;;;;;;5115385;27;20160;-64
2022/01/31 13:14:34;;;;;;;4.67;4.33;;;4.60;99.90;;;;;;5115137;28;20169;-64
2022/01/31 13:17:11;;;;;;;5.10;4.70;;;4.60;99.90;;;;;;5113756;28;20164;-65
2022/01/31 13:19:40;;;;;;;5.60;4.77;;;4.70;99.90;;;;;;5115377;28;20157;-63
2022/01/31 13:22:10;;;;;;;6.43;5.20;;;4.70;99.90;;;;;;5113620;28;20187;-64
2022/01/31 13:24:41;;;;;;;5.40;4.90;;;4.70;99.90;;;;;;5114794;28;20270;-64
2022/01/31 13:27:09;;;;;;;6.17;5.63;;;4.70;99.90;;;;;;5114764;28;20236;-64
2022/01/31 13:29:39;;;;;;;7.43;5.43;;;4.70;99.90;;;;;;5114571;28;20349;-64
2022/01/31 13:32:24;;;;;;;7.80;6.10;;;4.70;99.90;;;;;;5113508;28;20164;-64